createdAt,value
2022-08-09T00:01:48.401Z,21.99
2022-08-09T00:05:03.012Z,22.01
2022-08-09T00:07:54.875Z,21.90
2022-08-09T00:11:05.803Z,21.83
2022-08-09T00:14:10.165Z,21.78
2022-08-09T00:18:07.548Z,21.72
2022-08-09T00:20:25.039Z,21.56
2022-08-09T00:23:55.684Z,21.53
2022-08-09T00:26:42.066Z,21.48
2022-08-09T00:30:23.648Z,21.42
2022-08-09T00:32:56.277Z,21.41
2022-08-09T00:36:05.599Z,21.40
2022-08-09T00:39:17.009Z,21.40
2022-08-09T00:44:13.997Z,21.38
2022-08-09T00:45:26.329Z,21.33
2022-08-09T00:48:32.302Z,21.26
2022-08-09T00:51:42.611Z,21.22
2022-08-09T00:54:46.661Z,21.19
2022-08-09T00:57:52.317Z,21.12
2022-08-09T01:01:00.822Z,21.05
2022-08-09T01:04:09.262Z,21.00
2022-08-09T01:08:00.146Z,20.89
2022-08-09T01:11:16.053Z,20.78
2022-08-09T01:14:34.205Z,20.70
2022-08-09T01:17:49.322Z,20.74
2022-08-09T01:21:24.832Z,20.70
2022-08-09T01:25:00.837Z,20.71
2022-08-09T01:28:07.722Z,20.67
2022-08-09T01:32:30.334Z,20.64
2022-08-09T01:34:22.076Z,20.57
2022-08-09T01:38:05.871Z,20.58
2022-08-09T01:40:37.838Z,20.52
2022-08-09T01:43:51.975Z,20.51
2022-08-09T01:46:57.392Z,20.54
2022-08-09T01:50:06.565Z,20.56
2022-08-09T01:53:19.217Z,20.46
2022-08-09T01:56:20.420Z,20.47
2022-08-09T01:59:32.643Z,20.41
2022-08-09T02:02:44.048Z,20.44
2022-08-09T02:05:53.466Z,20.42
2022-08-09T02:08:59.710Z,20.35
2022-08-09T02:12:05.198Z,20.37
2022-08-09T02:15:16.780Z,20.34
2022-08-09T02:18:20.862Z,20.29
2022-08-09T02:21:29.312Z,20.26
2022-08-09T02:24:42.138Z,20.19
2022-08-09T02:27:58.276Z,20.06
2022-08-09T02:31:05.955Z,19.94
2022-08-09T02:34:40.762Z,19.83
2022-08-09T02:37:31.687Z,19.87
2022-08-09T02:40:34.093Z,19.92
2022-08-09T02:43:54.251Z,19.89
2022-08-09T02:46:47.089Z,19.95
2022-08-09T02:50:01.936Z,20.04
2022-08-09T02:53:17.279Z,20.16
2022-08-09T02:56:20.998Z,20.23
2022-08-09T02:59:36.435Z,20.39
2022-08-09T03:02:33.824Z,20.55
2022-08-09T03:05:39.844Z,20.67
2022-08-09T03:08:46.231Z,20.85
2022-08-09T03:12:08.444Z,20.97
2022-08-09T03:15:00.831Z,21.34
2022-08-09T03:18:09.871Z,21.49
2022-08-09T03:21:13.849Z,21.63
2022-08-09T03:24:31.426Z,21.72
2022-08-09T03:27:26.445Z,21.81
2022-08-09T03:30:34.088Z,21.85
2022-08-09T03:33:53.982Z,21.91
2022-08-09T03:36:58.258Z,21.90
2022-08-09T03:39:56.716Z,22.01
2022-08-09T03:43:02.012Z,22.23
2022-08-09T03:46:27.026Z,22.39
2022-08-09T03:49:17.292Z,22.63
2022-08-09T03:52:24.004Z,22.79
2022-08-09T03:55:36.271Z,22.91
2022-08-09T03:58:39.094Z,22.97
2022-08-09T04:01:45.986Z,23.10
2022-08-09T04:04:52.470Z,23.26
2022-08-09T04:07:58.629Z,23.33
2022-08-09T04:11:04.073Z,23.45
2022-08-09T04:14:53.129Z,23.53
2022-08-09T04:17:18.193Z,23.64
2022-08-09T04:20:25.614Z,23.73
2022-08-09T04:23:31.567Z,23.80
2022-08-09T04:26:38.471Z,23.98
2022-08-09T04:29:50.075Z,23.98
2022-08-09T04:32:51.646Z,24.03
2022-08-09T04:35:58.462Z,24.22
2022-08-09T04:38:57.112Z,24.41
2022-08-09T04:41:44.052Z,24.59
2022-08-09T04:44:37.372Z,24.72
2022-08-09T04:47:23.074Z,24.82
2022-08-09T04:50:19.686Z,24.96
2022-08-09T04:53:13.607Z,25.03
2022-08-09T04:56:06.338Z,25.11
2022-08-09T04:58:53.253Z,25.33
2022-08-09T05:01:47.230Z,25.37
2022-08-09T05:04:34.206Z,25.56
2022-08-09T05:07:27.712Z,25.70
2022-08-09T05:10:15.806Z,25.88
2022-08-09T05:13:07.899Z,25.99
2022-08-09T05:16:15.170Z,26.12
2022-08-09T05:19:24.461Z,26.33
2022-08-09T05:22:36.231Z,26.37
2022-08-09T05:25:36.429Z,26.52
2022-08-09T05:28:42.338Z,26.64
2022-08-09T05:31:56.271Z,26.74
2022-08-09T05:34:56.705Z,26.88
2022-08-09T05:38:21.776Z,26.99
2022-08-09T05:41:23.319Z,27.11
2022-08-09T05:44:32.872Z,27.22
2022-08-09T05:47:51.585Z,27.29
2022-08-09T05:50:51.054Z,27.33
2022-08-09T05:53:57.682Z,27.49
2022-08-09T05:57:02.792Z,27.57
2022-08-09T06:00:10.225Z,27.68
2022-08-09T06:03:20.064Z,27.82
2022-08-09T06:06:24.533Z,27.97
2022-08-09T06:09:54.400Z,27.96
2022-08-09T06:12:37.671Z,28.06
2022-08-09T06:15:43.105Z,28.12
2022-08-09T06:18:49.863Z,28.32
2022-08-09T06:21:58.645Z,28.44
2022-08-09T06:25:04.491Z,28.62
2022-08-09T06:28:12.593Z,28.74
2022-08-09T06:31:18.741Z,28.81
2022-08-09T06:34:30.702Z,28.84
2022-08-09T06:37:52.891Z,28.98
2022-08-09T06:40:41.724Z,29.14
2022-08-09T06:43:48.112Z,29.14
2022-08-09T06:46:55.793Z,29.19
2022-08-09T06:50:14.274Z,29.27
2022-08-09T06:53:09.497Z,29.53
2022-08-09T06:56:16.443Z,29.70
2022-08-09T07:00:51.245Z,29.84
2022-08-09T07:02:31.743Z,29.89
2022-08-09T07:06:02.369Z,29.95
2022-08-09T07:08:49.704Z,30.04
2022-08-09T07:11:55.092Z,30.04
2022-08-09T07:15:53.167Z,30.13
2022-08-09T07:18:10.243Z,30.19
2022-08-09T07:21:15.564Z,30.33
2022-08-09T07:24:21.867Z,30.36
2022-08-09T07:27:34.495Z,30.36
2022-08-09T07:30:36.419Z,30.46
2022-08-09T07:33:53.296Z,30.47
2022-08-09T07:36:53.503Z,30.55
2022-08-09T07:39:59.816Z,30.60
2022-08-09T07:43:16.699Z,30.70
2022-08-09T07:46:21.777Z,30.70
2022-08-09T07:49:29.451Z,30.86
2022-08-09T07:52:36.069Z,30.98
2022-08-09T07:56:05.833Z,31.05
2022-08-09T07:58:48.344Z,31.17
2022-08-09T08:01:55.933Z,31.26
2022-08-09T08:05:01.307Z,31.29
2022-08-09T08:09:00.003Z,31.37
2022-08-09T08:12:08.737Z,31.42
2022-08-09T08:14:14.260Z,31.39
2022-08-09T08:17:24.875Z,31.62
2022-08-09T08:20:32.251Z,31.92
2022-08-09T08:23:37.188Z,32.04
2022-08-09T08:26:54.668Z,32.08
2022-08-09T08:29:52.383Z,31.87
2022-08-09T08:32:59.985Z,31.79
2022-08-09T08:36:05.613Z,31.80
2022-08-09T08:39:11.066Z,31.89
2022-08-09T08:42:16.597Z,31.95
2022-08-09T08:45:37.237Z,31.96
2022-08-09T08:48:31.168Z,31.98
2022-08-09T08:51:38.688Z,32.14
2022-08-09T08:54:44.426Z,32.19
2022-08-09T08:57:57.271Z,32.24
2022-08-09T09:00:58.294Z,32.24
2022-08-09T09:04:04.135Z,32.29
2022-08-09T09:07:12.670Z,32.34
2022-08-09T09:10:21.289Z,32.35
2022-08-09T09:13:41.952Z,32.40
2022-08-09T09:16:40.296Z,32.45
2022-08-09T09:19:47.059Z,32.55
2022-08-09T09:23:10.076Z,32.59
2022-08-09T09:26:16.628Z,32.60
2022-08-09T09:29:19.052Z,32.60
2022-08-09T09:32:32.428Z,32.58
2022-08-09T09:35:33.218Z,32.63
2022-08-09T09:38:38.426Z,32.66
2022-08-09T09:41:49.890Z,32.66
2022-08-09T09:44:54.162Z,32.70
2022-08-09T09:48:01.952Z,32.72
2022-08-09T09:51:11.721Z,32.79
2022-08-09T09:54:27.002Z,32.78
2022-08-09T09:58:02.983Z,32.80
2022-08-09T10:00:43.274Z,32.76
2022-08-09T10:04:00.126Z,32.77
2022-08-09T10:07:10.046Z,32.78
2022-08-09T10:10:14.354Z,32.82
2022-08-09T10:13:42.815Z,32.83
2022-08-09T10:16:58.288Z,32.88
2022-08-09T10:19:29.650Z,32.90
2022-08-09T10:22:45.614Z,32.95
2022-08-09T10:26:04.941Z,32.96
2022-08-09T10:29:22.470Z,33.00
2022-08-09T10:35:08.050Z,33.13
2022-08-09T10:38:41.713Z,33.13
2022-08-09T10:41:21.581Z,33.15
2022-08-09T10:44:26.746Z,33.17
2022-08-09T10:48:19.402Z,33.17
2022-08-09T10:51:14.091Z,33.13
2022-08-09T10:54:21.252Z,33.15
2022-08-09T10:57:29.707Z,33.18
2022-08-09T11:01:10.977Z,33.17
2022-08-09T11:04:30.381Z,33.41
2022-08-09T11:07:57.337Z,33.18
2022-08-09T11:11:08.452Z,33.10
2022-08-09T11:14:48.897Z,33.08
2022-08-09T11:18:03.850Z,33.05
2022-08-09T11:21:05.878Z,33.05
2022-08-09T11:24:17.753Z,33.02
2022-08-09T11:28:03.857Z,33.07
2022-08-09T11:30:52.877Z,33.13
2022-08-09T11:34:04.625Z,33.15
2022-08-09T11:37:18.428Z,33.17
2022-08-09T11:40:21.504Z,33.18
2022-08-09T11:43:41.735Z,33.20
2022-08-09T11:47:10.994Z,33.25
2022-08-09T11:50:54.953Z,33.29
2022-08-09T11:53:58.835Z,33.31
2022-08-09T11:56:42.441Z,33.30
2022-08-09T11:59:46.579Z,33.30
2022-08-09T12:02:54.792Z,33.29
2022-08-09T12:06:01.730Z,33.28
2022-08-09T12:09:19.119Z,33.32
2022-08-09T12:12:20.592Z,33.33
2022-08-09T12:15:49.297Z,33.31
2022-08-09T12:18:49.043Z,33.35
2022-08-09T12:22:00.808Z,33.38
2022-08-09T12:25:09.666Z,33.40
2022-08-09T12:29:12.464Z,33.38
2022-08-09T12:32:01.838Z,33.35
2022-08-09T12:34:55.763Z,33.33
2022-08-09T12:38:02.990Z,33.37
2022-08-09T12:41:09.481Z,33.46
2022-08-09T12:44:15.840Z,33.39
2022-08-09T12:47:23.308Z,33.27
2022-08-09T12:50:30.359Z,33.16
2022-08-09T12:53:53.252Z,33.13
2022-08-09T12:57:02.742Z,33.17
2022-08-09T13:00:08.184Z,33.19
2022-08-09T13:03:24.605Z,33.26
2022-08-09T13:06:23.354Z,33.26
2022-08-09T13:09:52.618Z,33.24
2022-08-09T13:13:10.919Z,33.26
2022-08-09T13:16:12.810Z,33.21
2022-08-09T13:19:19.354Z,33.24
2022-08-09T13:23:05.185Z,33.25
2022-08-09T13:25:53.069Z,33.25
2022-08-09T13:28:49.691Z,33.24
2022-08-09T13:32:25.474Z,33.26
2022-08-09T13:35:26.055Z,33.24
2022-08-09T13:38:55.805Z,33.20
2022-08-09T13:41:57.272Z,33.18
2022-08-09T13:44:48.720Z,33.18
2022-08-09T13:47:59.055Z,33.19
2022-08-09T13:51:02.105Z,33.16
2022-08-09T13:54:08.291Z,33.20
2022-08-09T13:57:35.360Z,33.19
2022-08-09T14:00:39.696Z,33.19
2022-08-09T14:04:03.339Z,33.16
2022-08-09T14:06:47.256Z,33.13
2022-08-09T14:09:54.392Z,32.58
2022-08-09T14:13:02.202Z,32.45
2022-08-09T14:16:11.265Z,32.49
2022-08-09T14:19:16.386Z,32.61
2022-08-09T14:22:23.560Z,32.54
2022-08-09T14:25:31.314Z,32.57
2022-08-09T14:28:36.777Z,32.56
2022-08-09T14:31:51.810Z,32.60
2022-08-09T14:34:55.646Z,32.53
2022-08-09T14:38:02.393Z,32.52
2022-08-09T14:41:12.824Z,32.47
2022-08-09T14:44:11.141Z,32.39
2022-08-09T14:47:29.021Z,32.36
2022-08-09T14:50:26.317Z,32.37
2022-08-09T14:53:33.382Z,32.32
2022-08-09T14:56:53.640Z,32.30
2022-08-09T14:59:48.752Z,32.27
2022-08-09T15:02:56.068Z,32.29
2022-08-09T15:06:03.962Z,32.26
2022-08-09T15:09:10.536Z,32.25
2022-08-09T15:12:16.340Z,32.21
2022-08-09T15:15:28.512Z,32.15
2022-08-09T15:18:25.399Z,32.11
2022-08-09T15:21:58.872Z,31.99
2022-08-09T15:24:27.413Z,31.90
2022-08-09T15:27:47.845Z,31.77
2022-08-09T15:30:59.254Z,31.70
2022-08-09T15:34:19.558Z,31.59
2022-08-09T15:36:56.227Z,31.50
2022-08-09T15:40:04.623Z,31.45
2022-08-09T15:43:13.446Z,31.39
2022-08-09T15:46:31.585Z,31.32
2022-08-09T15:49:23.534Z,31.22
2022-08-09T15:52:25.725Z,31.07
2022-08-09T15:55:31.308Z,31.01
2022-08-09T15:58:38.310Z,30.92
2022-08-09T16:01:41.208Z,30.79
2022-08-09T16:04:35.514Z,30.71
2022-08-09T16:07:45.769Z,30.61
2022-08-09T16:10:56.050Z,30.49
2022-08-09T16:14:02.960Z,30.39
2022-08-09T16:17:04.728Z,30.26
2022-08-09T16:20:12.745Z,30.15
2022-08-09T16:23:19.986Z,30.05
2022-08-09T16:26:34.871Z,29.83
2022-08-09T16:29:36.622Z,29.83
2022-08-09T16:33:00.737Z,29.65
2022-08-09T16:36:13.159Z,29.59
2022-08-09T16:39:14.637Z,29.43
2022-08-09T16:42:23.987Z,29.28
2022-08-09T16:45:22.003Z,29.16
2022-08-09T16:48:42.025Z,29.01
2022-08-09T16:51:35.946Z,28.87
2022-08-09T16:54:41.583Z,28.74
2022-08-09T16:58:08.568Z,28.58
2022-08-09T17:01:11.113Z,28.42
2022-08-09T17:04:28.370Z,28.26
2022-08-09T17:08:45.941Z,28.13
2022-08-09T17:10:32.837Z,28.01
2022-08-09T17:13:39.618Z,27.87
2022-08-09T17:16:46.660Z,27.75
2022-08-09T17:20:32.308Z,27.63
2022-08-09T17:22:59.023Z,27.47
2022-08-09T17:26:05.678Z,27.38
2022-08-09T17:29:20.729Z,27.24
2022-08-09T17:32:34.657Z,27.10
2022-08-09T17:35:27.314Z,27.01
2022-08-09T17:38:39.035Z,26.94
2022-08-09T17:41:41.591Z,26.71
2022-08-09T17:44:49.140Z,26.72
2022-08-09T17:48:02.400Z,26.64
2022-08-09T17:51:10.111Z,26.55
2022-08-09T17:54:10.202Z,26.45
2022-08-09T17:57:20.619Z,26.38
2022-08-09T18:00:43.970Z,26.33
2022-08-09T18:03:33.053Z,26.25
2022-08-09T18:06:39.166Z,26.22
2022-08-09T18:10:04.141Z,26.14
2022-08-09T18:13:40.195Z,26.09
2022-08-09T18:16:07.632Z,26.03
2022-08-09T18:20:56.769Z,26.00
2022-08-09T18:22:19.719Z,25.87
2022-08-09T18:25:52.478Z,25.78
2022-08-09T18:30:40.545Z,25.68
2022-08-09T18:31:55.137Z,25.63
2022-08-09T18:34:50.551Z,25.57
2022-08-09T18:37:58.149Z,25.53
2022-08-09T18:41:03.614Z,25.46
2022-08-09T18:44:12.962Z,25.38
2022-08-09T18:47:20.682Z,25.30
2022-08-09T18:50:25.056Z,25.22
2022-08-09T18:53:55.997Z,25.17
2022-08-09T18:56:39.813Z,25.09
2022-08-09T18:59:48.826Z,24.99
2022-08-09T19:02:54.270Z,24.93
2022-08-09T19:06:03.162Z,24.89
2022-08-09T19:09:07.311Z,24.81
2022-08-09T19:12:14.658Z,24.74
2022-08-09T19:15:22.814Z,24.73
2022-08-09T19:18:32.974Z,24.72
2022-08-09T19:21:52.101Z,24.70
2022-08-09T19:25:11.631Z,24.72
2022-08-09T19:27:53.712Z,24.65
2022-08-09T19:31:00.776Z,24.72
2022-08-09T19:34:06.896Z,24.73
2022-08-09T19:37:16.795Z,24.68
2022-08-09T19:40:22.918Z,24.67
2022-08-09T19:43:58.047Z,24.61
2022-08-09T19:46:50.192Z,24.56
2022-08-09T19:50:08.382Z,24.52
2022-08-09T19:52:52.622Z,24.56
2022-08-09T19:56:03.087Z,24.53
2022-08-09T19:59:06.283Z,24.45
2022-08-09T20:02:18.335Z,24.43
2022-08-09T20:05:23.758Z,24.39
2022-08-09T20:08:35.429Z,24.32
2022-08-09T20:11:48.850Z,24.27
2022-08-09T20:14:50.488Z,24.24
2022-08-09T20:17:54.310Z,24.16
2022-08-09T20:20:58.062Z,24.12
2022-08-09T20:24:04.104Z,24.07
2022-08-09T20:27:11.564Z,24.01
2022-08-09T20:30:21.856Z,23.92
2022-08-09T20:33:25.671Z,23.86
2022-08-09T20:36:33.161Z,23.80
2022-08-09T20:40:14.738Z,23.76
2022-08-09T20:43:00.366Z,23.73
2022-08-09T20:45:59.794Z,23.68
2022-08-09T20:48:56.695Z,23.65
2022-08-09T20:52:03.123Z,23.60
2022-08-09T20:55:09.333Z,23.58
2022-08-09T20:58:20.262Z,23.51
2022-08-09T21:01:34.539Z,23.55
2022-08-09T21:05:49.408Z,23.46
2022-08-09T21:07:40.433Z,23.43
2022-08-09T21:10:53.211Z,23.41
2022-08-09T21:13:59.703Z,23.42
2022-08-09T21:18:11.465Z,23.29
2022-08-09T21:20:22.580Z,23.37
2022-08-09T21:23:16.694Z,23.33
2022-08-09T21:26:22.771Z,23.34
2022-08-09T21:29:30.522Z,23.29
2022-08-09T21:32:33.416Z,23.37
2022-08-09T21:35:39.515Z,23.29
2022-08-09T21:38:56.927Z,23.21
2022-08-09T21:42:03.782Z,23.19
2022-08-09T21:45:03.843Z,23.11
2022-08-09T21:48:10.762Z,23.02
2022-08-09T21:51:24.250Z,22.97
2022-08-09T21:54:09.142Z,22.89
2022-08-09T21:57:59.903Z,22.83
2022-08-09T22:00:52.283Z,22.78
2022-08-09T22:03:59.797Z,22.70
2022-08-09T22:07:06.143Z,22.64
2022-08-09T22:10:12.715Z,22.58
2022-08-09T22:13:19.487Z,22.59
2022-08-09T22:16:18.928Z,22.79
2022-08-09T22:19:58.674Z,22.62
2022-08-09T22:22:33.841Z,22.52
2022-08-09T22:26:07.822Z,22.37
2022-08-09T22:28:53.846Z,22.35
2022-08-09T22:31:56.880Z,22.27
2022-08-09T22:35:02.356Z,22.25
2022-08-09T22:38:08.731Z,22.14
2022-08-09T22:41:15.096Z,22.13
2022-08-09T22:44:21.153Z,22.17
2022-08-09T22:48:16.602Z,22.11
2022-08-09T22:50:33.036Z,22.07
2022-08-09T22:53:44.327Z,22.03
2022-08-09T22:56:45.252Z,22.10
2022-08-09T22:59:58.383Z,22.08
2022-08-09T23:03:00.115Z,21.99
2022-08-09T23:06:07.365Z,21.88
2022-08-09T23:09:16.084Z,21.80
2022-08-09T23:12:21.895Z,21.78
2022-08-09T23:15:27.381Z,21.91
2022-08-09T23:18:33.190Z,21.77
2022-08-09T23:21:39.633Z,21.68
2022-08-09T23:24:45.363Z,21.62
2022-08-09T23:28:13.963Z,21.53
2022-08-09T23:31:00.407Z,21.49
2022-08-09T23:34:05.820Z,21.59
2022-08-09T23:37:11.261Z,21.46
2022-08-09T23:40:16.199Z,21.44
2022-08-09T23:43:21.533Z,21.44
2022-08-09T23:46:28.470Z,21.38
2022-08-09T23:49:34.455Z,21.39
2022-08-09T23:52:40.551Z,21.29
2022-08-09T23:55:49.363Z,21.21
2022-08-09T23:58:54.757Z,21.18
